sensor_id;sensor_type;location;lat;lon;timestamp;pressure;altitude;pressure_sealevel;temperature;humidity
21240;BME280;10778;48.962;9.018;2024-01-15T00:02:22;98114.88;;;-3.86;97.31
21240;BME280;10778;48.962;9.018;2024-01-15T00:04:48;98114.84;;;-3.84;96.74
21240;BME280;10778;48.962;9.018;2024-01-15T00:07:14;98102.59;;;-3.79;96.66
21240;BME280;10778;48.962;9.018;2024-01-15T00:09:40;98114.59;;;-3.79;96.90
21240;BME280;10778;48.962;9.018;2024-01-15T00:12:06;98123.97;;;-3.78;96.92
21240;BME280;10778;48.962;9.018;2024-01-15T00:14:32;98115.28;;;-3.76;96.97
21240;BME280;10778;48.962;9.018;2024-01-15T00:16:58;98103.94;;;-3.72;97.51
21240;BME280;10778;48.962;9.018;2024-01-15T00:19:24;98105.56;;;-3.69;97.18
21240;BME280;10778;48.962;9.018;2024-01-15T00:21:50;98097.63;;;-3.64;96.98
21240;BME280;10778;48.962;9.018;2024-01-15T00:24:16;98084.94;;;-3.67;96.69
21240;BME280;10778;48.962;9.018;2024-01-15T00:26:42;98093.41;;;-3.65;97.47
21240;BME280;10778;48.962;9.018;2024-01-15T00:29:09;98094.00;;;-3.60;97.49
21240;BME280;10778;48.962;9.018;2024-01-15T00:31:35;98086.81;;;-3.53;97.56
21240;BME280;10778;48.962;9.018;2024-01-15T00:34:01;98080.78;;;-3.52;97.07
21240;BME280;10778;48.962;9.018;2024-01-15T00:36:27;98080.63;;;-3.49;97.43
21240;BME280;10778;48.962;9.018;2024-01-15T00:38:54;98089.84;;;-3.45;97.48
21240;BME280;10778;48.962;9.018;2024-01-15T00:41:20;98078.59;;;-3.43;97.57
21240;BME280;10778;48.962;9.018;2024-01-15T00:43:46;98080.09;;;-3.38;97.01
21240;BME280;10778;48.962;9.018;2024-01-15T00:46:15;98080.03;;;-3.37;97.35
21240;BME280;10778;48.962;9.018;2024-01-15T00:48:41;98078.38;;;-3.38;97.29
21240;BME280;10778;48.962;9.018;2024-01-15T00:51:07;98079.88;;;-3.34;97.55
21240;BME280;10778;48.962;9.018;2024-01-15T00:53:33;98084.16;;;-3.34;97.83
21240;BME280;10778;48.962;9.018;2024-01-15T00:55:59;98081.53;;;-3.33;97.81
21240;BME280;10778;48.962;9.018;2024-01-15T00:58:26;98089.09;;;-3.30;97.59
21240;BME280;10778;48.962;9.018;2024-01-15T01:00:52;98085.53;;;-3.27;97.34
21240;BME280;10778;48.962;9.018;2024-01-15T01:03:18;98080.25;;;-3.24;97.82
21240;BME280;10778;48.962;9.018;2024-01-15T01:05:44;98086.28;;;-3.25;97.61
21240;BME280;10778;48.962;9.018;2024-01-15T01:08:10;98093.03;;;-3.22;97.81
21240;BME280;10778;48.962;9.018;2024-01-15T01:10:37;98092.28;;;-3.24;97.71
21240;BME280;10778;48.962;9.018;2024-01-15T01:13:03;98092.28;;;-3.24;97.87
21240;BME280;10778;48.962;9.018;2024-01-15T01:15:29;98085.16;;;-3.19;98.02
21240;BME280;10778;48.962;9.018;2024-01-15T01:17:55;98084.25;;;-3.18;97.95
21240;BME280;10778;48.962;9.018;2024-01-15T01:20:21;98082.50;;;-3.18;98.01
21240;BME280;10778;48.962;9.018;2024-01-15T01:22:47;98082.38;;;-3.15;97.19
21240;BME280;10778;48.962;9.018;2024-01-15T01:25:13;98083.78;;;-3.09;97.36
21240;BME280;10778;48.962;9.018;2024-01-15T01:27:40;98076.97;;;-3.10;97.57
21240;BME280;10778;48.962;9.018;2024-01-15T01:30:06;98087.88;;;-3.05;96.76
21240;BME280;10778;48.962;9.018;2024-01-15T01:32:32;98078.25;;;-3.01;96.84
21240;BME280;10778;48.962;9.018;2024-01-15T01:34:58;98087.03;;;-3.05;97.19
21240;BME280;10778;48.962;9.018;2024-01-15T01:37:24;98077.34;;;-3.00;97.38
21240;BME280;10778;48.962;9.018;2024-01-15T01:39:50;98071.97;;;-2.95;96.54
21240;BME280;10778;48.962;9.018;2024-01-15T01:42:16;98069.63;;;-3.00;96.50
21240;BME280;10778;48.962;9.018;2024-01-15T01:44:42;98070.97;;;-2.93;97.04
21240;BME280;10778;48.962;9.018;2024-01-15T01:47:08;98055.59;;;-2.94;96.55
21240;BME280;10778;48.962;9.018;2024-01-15T01:49:35;98066.50;;;-2.89;95.81
21240;BME280;10778;48.962;9.018;2024-01-15T01:52:05;98065.50;;;-2.87;96.69
21240;BME280;10778;48.962;9.018;2024-01-15T01:54:33;98066.50;;;-2.89;96.43
21240;BME280;10778;48.962;9.018;2024-01-15T01:57:00;98065.50;;;-2.87;95.94
21240;BME280;10778;48.962;9.018;2024-01-15T01:59:28;98067.09;;;-2.84;96.81
21240;BME280;10778;48.962;9.018;2024-01-15T02:01:54;98064.75;;;-2.89;96.34
21240;BME280;10778;48.962;9.018;2024-01-15T02:04:23;98067.09;;;-2.84;97.03
21240;BME280;10778;48.962;9.018;2024-01-15T02:06:50;98066.72;;;-2.76;96.21
21240;BME280;10778;48.962;9.018;2024-01-15T02:09:17;98065.09;;;-2.79;96.73
21240;BME280;10778;48.962;9.018;2024-01-15T02:11:46;98058.53;;;-2.84;96.78
21240;BME280;10778;48.962;9.018;2024-01-15T02:14:12;98062.47;;;-2.77;96.69
21240;BME280;10778;48.962;9.018;2024-01-15T02:16:38;98063.28;;;-2.77;96.61
21240;BME280;10778;48.962;9.018;2024-01-15T02:19:04;98055.31;;;-2.72;95.72
21240;BME280;10778;48.962;9.018;2024-01-15T02:21:33;98052.53;;;-2.67;95.59
21240;BME280;10778;48.962;9.018;2024-01-15T02:23:59;98055.84;;;-2.65;95.91
21240;BME280;10778;48.962;9.018;2024-01-15T02:26:26;98054.94;;;-2.64;95.62
21240;BME280;10778;48.962;9.018;2024-01-15T02:28:52;98056.69;;;-2.65;96.17
21240;BME280;10778;48.962;9.018;2024-01-15T02:31:18;98044.56;;;-2.63;96.08
21240;BME280;10778;48.962;9.018;2024-01-15T02:33:44;98041.25;;;-2.65;95.75
21240;BME280;10778;48.962;9.018;2024-01-15T02:36:12;98056.91;;;-2.69;96.40
21240;BME280;10778;48.962;9.018;2024-01-15T02:38:38;98053.25;;;-2.65;96.45
21240;BME280;10778;48.962;9.018;2024-01-15T02:41:04;98062.66;;;-2.64;96.34
21240;BME280;10778;48.962;9.018;2024-01-15T02:43:30;98055.50;;;-2.59;96.19
21240;BME280;10778;48.962;9.018;2024-01-15T02:45:56;98051.59;;;-2.66;96.90
21240;BME280;10778;48.962;9.018;2024-01-15T02:48:22;98048.97;;;-2.65;96.23
21240;BME280;10778;48.962;9.018;2024-01-15T02:50:48;98046.88;;;-2.58;96.98
21240;BME280;10778;48.962;9.018;2024-01-15T02:53:14;98051.09;;;-2.57;96.81
21240;BME280;10778;48.962;9.018;2024-01-15T02:55:40;98041.06;;;-2.62;96.68
21240;BME280;10778;48.962;9.018;2024-01-15T02:58:07;98039.91;;;-2.56;96.07
21240;BME280;10778;48.962;9.018;2024-01-15T03:00:33;98045.94;;;-2.57;96.25
21240;BME280;10778;48.962;9.018;2024-01-15T03:02:59;98046.78;;;-2.57;96.27
21240;BME280;10778;48.962;9.018;2024-01-15T03:05:25;98045.13;;;-2.58;96.65
21240;BME280;10778;48.962;9.018;2024-01-15T03:07:51;98038.56;;;-2.63;97.16
21240;BME280;10778;48.962;9.018;2024-01-15T03:10:17;98043.47;;;-2.59;96.78
21240;BME280;10778;48.962;9.018;2024-01-15T03:12:43;98028.03;;;-2.59;96.56
21240;BME280;10778;48.962;9.018;2024-01-15T03:15:09;98026.19;;;-2.57;96.64
21240;BME280;10778;48.962;9.018;2024-01-15T03:17:35;98033.06;;;-2.57;97.02
21240;BME280;10778;48.962;9.018;2024-01-15T03:20:01;98024.38;;;-2.54;96.85
21240;BME280;10778;48.962;9.018;2024-01-15T03:22:28;98029.63;;;-2.56;97.19
21240;BME280;10778;48.962;9.018;2024-01-15T03:24:54;98031.50;;;-2.44;97.42
21240;BME280;10778;48.962;9.018;2024-01-15T03:27:20;98020.47;;;-2.46;97.00
21240;BME280;10778;48.962;9.018;2024-01-15T03:29:46;98021.31;;;-2.45;97.15
21240;BME280;10778;48.962;9.018;2024-01-15T03:32:12;98016.41;;;-2.50;97.09
21240;BME280;10778;48.962;9.018;2024-01-15T03:34:38;98023.03;;;-2.46;97.02
21240;BME280;10778;48.962;9.018;2024-01-15T03:37:04;98023.88;;;-2.45;97.44
21240;BME280;10778;48.962;9.018;2024-01-15T03:39:30;98015.41;;;-2.47;97.40
21240;BME280;10778;48.962;9.018;2024-01-15T03:41:56;98025.53;;;-2.44;97.26
21240;BME280;10778;48.962;9.018;2024-01-15T03:44:22;98032.44;;;-2.45;97.27
21240;BME280;10778;48.962;9.018;2024-01-15T03:46:48;98021.88;;;-2.40;97.40
21240;BME280;10778;48.962;9.018;2024-01-15T03:49:14;98021.88;;;-2.40;97.03
21240;BME280;10778;48.962;9.018;2024-01-15T03:51:40;98022.81;;;-2.41;97.91
21240;BME280;10778;48.962;9.018;2024-01-15T03:54:06;98016.72;;;-2.40;97.17
21240;BME280;10778;48.962;9.018;2024-01-15T03:56:32;98016.66;;;-2.38;97.29
21240;BME280;10778;48.962;9.018;2024-01-15T03:58:58;98014.16;;;-2.40;97.31
21240;BME280;10778;48.962;9.018;2024-01-15T04:01:24;98001.22;;;-2.38;97.67
21240;BME280;10778;48.962;9.018;2024-01-15T04:03:50;98005.44;;;-2.37;97.65
21240;BME280;10778;48.962;9.018;2024-01-15T04:06:16;97995.94;;;-2.37;97.44
21240;BME280;10778;48.962;9.018;2024-01-15T04:08:42;97994.22;;;-2.36;97.02
21240;BME280;10778;48.962;9.018;2024-01-15T04:11:08;97992.28;;;-2.33;97.17
21240;BME280;10778;48.962;9.018;2024-01-15T04:13:34;97995.47;;;-2.27;97.02
21240;BME280;10778;48.962;9.018;2024-01-15T04:16:00;97984.41;;;-2.30;97.05
21240;BME280;10778;48.962;9.018;2024-01-15T04:18:26;97986.81;;;-2.26;97.31
21240;BME280;10778;48.962;9.018;2024-01-15T04:20:52;97976.41;;;-2.25;96.48
21240;BME280;10778;48.962;9.018;2024-01-15T04:23:18;97967.69;;;-2.22;96.55
21240;BME280;10778;48.962;9.018;2024-01-15T04:25:44;97961.97;;;-2.27;96.68
21240;BME280;10778;48.962;9.018;2024-01-15T04:28:12;97985.06;;;-2.26;97.02
21240;BME280;10778;48.962;9.018;2024-01-15T04:30:38;97982.47;;;-2.26;96.79
21240;BME280;10778;48.962;9.018;2024-01-15T04:33:04;97986.16;;;-2.30;96.70
21240;BME280;10778;48.962;9.018;2024-01-15T04:35:30;97973.94;;;-2.26;97.53
21240;BME280;10778;48.962;9.018;2024-01-15T04:37:57;97980.91;;;-2.29;97.21
21240;BME280;10778;48.962;9.018;2024-01-15T04:40:23;97990.81;;;-2.37;97.49
21240;BME280;10778;48.962;9.018;2024-01-15T04:42:48;97990.63;;;-2.34;98.62
21240;BME280;10778;48.962;9.018;2024-01-15T04:45:14;98001.44;;;-2.27;97.50
21240;BME280;10778;48.962;9.018;2024-01-15T04:47:40;97990.81;;;-2.37;98.01
21240;BME280;10778;48.962;9.018;2024-01-15T04:50:08;97986.72;;;-2.25;98.56
21240;BME280;10778;48.962;9.018;2024-01-15T04:52:34;97975.16;;;-2.34;98.38
21240;BME280;10778;48.962;9.018;2024-01-15T04:55:00;97971.09;;;-2.38;98.08
21240;BME280;10778;48.962;9.018;2024-01-15T04:57:25;97975.84;;;-2.30;98.84
21240;BME280;10778;48.962;9.018;2024-01-15T04:59:51;97979.16;;;-2.28;98.13
21240;BME280;10778;48.962;9.018;2024-01-15T05:02:17;97980.25;;;-2.32;98.35
21240;BME280;10778;48.962;9.018;2024-01-15T05:04:43;97972.34;;;-2.29;98.62
21240;BME280;10778;48.962;9.018;2024-01-15T05:07:10;97969.78;;;-2.29;98.96
21240;BME280;10778;48.962;9.018;2024-01-15T05:09:36;97958.66;;;-2.30;98.48
21240;BME280;10778;48.962;9.018;2024-01-15T05:12:02;97962.72;;;-2.25;97.96
21240;BME280;10778;48.962;9.018;2024-01-15T05:14:28;97953.16;;;-2.23;96.98
21240;BME280;10778;48.962;9.018;2024-01-15T05:16:54;97961.06;;;-2.26;98.10
21240;BME280;10778;48.962;9.018;2024-01-15T05:19:20;97965.28;;;-2.25;97.83
21240;BME280;10778;48.962;9.018;2024-01-15T05:21:46;97970.44;;;-2.25;98.01
21240;BME280;10778;48.962;9.018;2024-01-15T05:24:12;97968.13;;;-2.30;98.21
21240;BME280;10778;48.962;9.018;2024-01-15T05:26:37;97959.78;;;-2.19;97.77
21240;BME280;10778;48.962;9.018;2024-01-15T05:29:03;97968.53;;;-2.22;97.81
21240;BME280;10778;48.962;9.018;2024-01-15T05:31:29;97960.13;;;-2.25;96.83
21240;BME280;10778;48.962;9.018;2024-01-15T05:33:55;97959.53;;;-2.15;97.04
21240;BME280;10778;48.962;9.018;2024-01-15T05:36:21;97963.41;;;-2.07;96.87
21240;BME280;10778;48.962;9.018;2024-01-15T05:38:47;97962.59;;;-2.08;96.16
21240;BME280;10778;48.962;9.018;2024-01-15T05:41:14;97953.25;;;-1.94;95.62
21240;BME280;10778;48.962;9.018;2024-01-15T05:43:40;97954.28;;;-1.82;95.55
21240;BME280;10778;48.962;9.018;2024-01-15T05:46:06;97953.84;;;-1.75;95.17
21240;BME280;10778;48.962;9.018;2024-01-15T05:48:32;97948.13;;;-1.80;94.22
21240;BME280;10778;48.962;9.018;2024-01-15T05:50:58;97949.03;;;-1.81;93.18
21240;BME280;10778;48.962;9.018;2024-01-15T05:53:24;97947.66;;;-1.72;93.56
21240;BME280;10778;48.962;9.018;2024-01-15T05:55:50;97939.19;;;-1.74;93.29
21240;BME280;10778;48.962;9.018;2024-01-15T05:58:16;97932.97;;;-1.70;92.94
21240;BME280;10778;48.962;9.018;2024-01-15T06:00:42;97937.28;;;-1.70;93.01
21240;BME280;10778;48.962;9.018;2024-01-15T06:03:08;97929.47;;;-1.69;92.18
21240;BME280;10778;48.962;9.018;2024-01-15T06:05:34;97924.78;;;-1.62;93.42
21240;BME280;10778;48.962;9.018;2024-01-15T06:08:00;97933.25;;;-1.60;91.65
21240;BME280;10778;48.962;9.018;2024-01-15T06:10:26;97928.25;;;-1.63;92.18
21240;BME280;10778;48.962;9.018;2024-01-15T06:12:52;97933.78;;;-1.69;92.20
21240;BME280;10778;48.962;9.018;2024-01-15T06:15:18;97930.81;;;-1.63;92.27
21240;BME280;10778;48.962;9.018;2024-01-15T06:17:44;97939.47;;;-1.64;92.79
21240;BME280;10778;48.962;9.018;2024-01-15T06:20:10;97937.34;;;-1.72;92.77
21240;BME280;10778;48.962;9.018;2024-01-15T06:22:37;97942.31;;;-1.83;93.76
21240;BME280;10778;48.962;9.018;2024-01-15T06:25:07;97933.94;;;-1.87;93.90
21240;BME280;10778;48.962;9.018;2024-01-15T06:27:33;97927.03;;;-1.72;93.25
21240;BME280;10778;48.962;9.018;2024-01-15T06:29:59;97923.16;;;-1.79;93.01
21240;BME280;10778;48.962;9.018;2024-01-15T06:32:25;97923.63;;;-1.87;93.79
21240;BME280;10778;48.962;9.018;2024-01-15T06:34:51;97925.94;;;-0.81;100.00
21240;BME280;10778;48.962;9.018;2024-01-15T06:37:17;97917.44;;;-0.68;98.35
21240;BME280;10778;48.962;9.018;2024-01-15T06:39:44;97917.28;;;-0.25;94.33
21240;BME280;10778;48.962;9.018;2024-01-15T06:42:10;97915.06;;;-0.04;97.10
21240;BME280;10778;48.962;9.018;2024-01-15T06:44:36;97910.13;;;0.19;94.40
21240;BME280;10778;48.962;9.018;2024-01-15T06:47:02;97911.22;;;-0.38;86.11
21240;BME280;10778;48.962;9.018;2024-01-15T06:49:29;97904.94;;;0.32;89.10
21240;BME280;10778;48.962;9.018;2024-01-15T06:51:55;97910.09;;;0.06;85.56
21240;BME280;10778;48.962;9.018;2024-01-15T06:54:21;97900.19;;;0.39;87.53
21240;BME280;10778;48.962;9.018;2024-01-15T06:56:47;97904.28;;;0.03;85.37
21240;BME280;10778;48.962;9.018;2024-01-15T06:59:13;97904.28;;;0.03;85.73
21240;BME280;10778;48.962;9.018;2024-01-15T07:01:39;97899.34;;;-0.01;88.52
21240;BME280;10778;48.962;9.018;2024-01-15T07:04:06;97899.09;;;-0.23;85.62
21240;BME280;10778;48.962;9.018;2024-01-15T07:06:32;97896.94;;;-0.17;84.40
21240;BME280;10778;48.962;9.018;2024-01-15T07:08:58;97896.31;;;-0.75;85.01
21240;BME280;10778;48.962;9.018;2024-01-15T07:11:24;97905.84;;;-0.90;86.63
21240;BME280;10778;48.962;9.018;2024-01-15T07:13:50;97904.31;;;-1.07;86.26
21240;BME280;10778;48.962;9.018;2024-01-15T07:16:16;97913.06;;;-1.24;87.36
21240;BME280;10778;48.962;9.018;2024-01-15T07:18:42;97909.13;;;-1.45;88.08
21240;BME280;10778;48.962;9.018;2024-01-15T07:21:08;97908.38;;;-1.47;88.77
21240;BME280;10778;48.962;9.018;2024-01-15T07:23:34;97911.13;;;-1.50;89.81
21240;BME280;10778;48.962;9.018;2024-01-15T07:25:59;97918.13;;;-1.52;90.09
21240;BME280;10778;48.962;9.018;2024-01-15T07:28:28;97914.16;;;-1.58;90.27
21240;BME280;10778;48.962;9.018;2024-01-15T07:30:54;97931.41;;;-1.58;90.19
21240;BME280;10778;48.962;9.018;2024-01-15T07:33:35;97924.47;;;-1.58;90.16
21240;BME280;10778;48.962;9.018;2024-01-15T07:36:01;97923.75;;;-1.60;89.85
21240;BME280;10778;48.962;9.018;2024-01-15T07:38:28;97921.28;;;-1.61;90.77
21240;BME280;10778;48.962;9.018;2024-01-15T07:40:54;97929.09;;;-1.63;90.72
21240;BME280;10778;48.962;9.018;2024-01-15T07:43:21;97936.75;;;-1.61;90.32
21240;BME280;10778;48.962;9.018;2024-01-15T07:45:46;97933.41;;;-1.63;90.85
21240;BME280;10778;48.962;9.018;2024-01-15T07:48:13;97935.00;;;-1.61;90.39
21240;BME280;10778;48.962;9.018;2024-01-15T07:50:39;97932.34;;;-1.59;90.57
21240;BME280;10778;48.962;9.018;2024-01-15T07:53:05;97943.56;;;-1.60;90.41
21240;BME280;10778;48.962;9.018;2024-01-15T07:55:31;97943.19;;;-1.54;90.31
21240;BME280;10778;48.962;9.018;2024-01-15T07:57:57;97941.63;;;-1.57;90.47
21240;BME280;10778;48.962;9.018;2024-01-15T08:00:27;97944.94;;;-1.54;90.29
21240;BME280;10778;48.962;9.018;2024-01-15T08:02:53;97945.13;;;-1.58;89.91
21240;BME280;10778;48.962;9.018;2024-01-15T08:05:19;97946.88;;;-1.58;90.23
21240;BME280;10778;48.962;9.018;2024-01-15T08:07:47;97941.28;;;-1.50;90.08
21240;BME280;10778;48.962;9.018;2024-01-15T08:10:13;97940.06;;;-1.59;89.79
21240;BME280;10778;48.962;9.018;2024-01-15T08:12:39;97938.97;;;-1.55;90.15
21240;BME280;10778;48.962;9.018;2024-01-15T08:15:05;97942.19;;;-1.51;89.16
21240;BME280;10778;48.962;9.018;2024-01-15T08:17:31;97935.94;;;-1.47;89.00
21240;BME280;10778;48.962;9.018;2024-01-15T08:19:58;97940.44;;;-1.51;88.87
21240;BME280;10778;48.962;9.018;2024-01-15T08:22:25;97930.78;;;-1.47;87.69
21240;BME280;10778;48.962;9.018;2024-01-15T08:24:51;97930.50;;;-1.42;87.59
21240;BME280;10778;48.962;9.018;2024-01-15T08:27:17;97934.56;;;-1.38;87.49
21240;BME280;10778;48.962;9.018;2024-01-15T08:29:44;97930.97;;;-1.36;87.18
21240;BME280;10778;48.962;9.018;2024-01-15T08:32:10;97926.16;;;-1.27;85.61
21240;BME280;10778;48.962;9.018;2024-01-15T08:34:39;97940.00;;;-1.29;86.26
21240;BME280;10778;48.962;9.018;2024-01-15T08:37:05;97934.63;;;-1.25;85.50
21240;BME280;10778;48.962;9.018;2024-01-15T08:39:31;97929.84;;;-1.17;84.82
21240;BME280;10778;48.962;9.018;2024-01-15T08:41:57;97929.41;;;-1.09;85.11
21240;BME280;10778;48.962;9.018;2024-01-15T08:44:23;97931.13;;;-1.10;84.54
21240;BME280;10778;48.962;9.018;2024-01-15T08:46:49;97931.50;;;-1.16;83.98
21240;BME280;10778;48.962;9.018;2024-01-15T08:49:15;97928.56;;;-1.10;84.07
21240;BME280;10778;48.962;9.018;2024-01-15T08:51:41;97922.91;;;-1.02;83.81
21240;BME280;10778;48.962;9.018;2024-01-15T08:54:07;97925.56;;;-0.89;83.70
21240;BME280;10778;48.962;9.018;2024-01-15T08:56:34;97928.16;;;-0.89;82.52
21240;BME280;10778;48.962;9.018;2024-01-15T08:59:00;97920.78;;;-0.81;82.78
21240;BME280;10778;48.962;9.018;2024-01-15T09:01:26;97914.56;;;-0.78;81.75
21240;BME280;10778;48.962;9.018;2024-01-15T09:03:52;97907.59;;;-0.76;81.85
21240;BME280;10778;48.962;9.018;2024-01-15T09:06:18;97919.00;;;-0.80;81.90
21240;BME280;10778;48.962;9.018;2024-01-15T09:08:44;97914.16;;;-0.85;83.01
21240;BME280;10778;48.962;9.018;2024-01-15T09:11:10;97919.72;;;-0.78;83.09
21240;BME280;10778;48.962;9.018;2024-01-15T09:13:36;97910.97;;;-0.76;83.35
21240;BME280;10778;48.962;9.018;2024-01-15T09:16:02;97901.03;;;-0.82;84.41
21240;BME280;10778;48.962;9.018;2024-01-15T09:18:29;97911.25;;;-0.80;84.43
21240;BME280;10778;48.962;9.018;2024-01-15T09:20:55;97907.38;;;-0.73;84.64
21240;BME280;10778;48.962;9.018;2024-01-15T09:23:21;97914.47;;;-0.77;84.40
21240;BME280;10778;48.962;9.018;2024-01-15T09:25:47;97904.13;;;-0.62;84.64
21240;BME280;10778;48.962;9.018;2024-01-15T09:28:14;97906.22;;;-0.54;84.35
21240;BME280;10778;48.962;9.018;2024-01-15T09:30:40;97900.81;;;-0.64;84.25
21240;BME280;10778;48.962;9.018;2024-01-15T09:33:06;97895.34;;;-0.60;84.18
21240;BME280;10778;48.962;9.018;2024-01-15T09:35:32;97882.81;;;-0.66;84.62
21240;BME280;10778;48.962;9.018;2024-01-15T09:37:58;97888.50;;;-0.61;83.94
21240;BME280;10778;48.962;9.018;2024-01-15T09:40:25;97893.94;;;-0.51;83.73
21240;BME280;10778;48.962;9.018;2024-01-15T09:42:55;97898.75;;;-0.59;82.64
21240;BME280;10778;48.962;9.018;2024-01-15T09:45:21;97891.44;;;-0.52;83.04
21240;BME280;10778;48.962;9.018;2024-01-15T09:47:47;97896.13;;;-0.45;82.41
21240;BME280;10778;48.962;9.018;2024-01-15T09:50:13;97887.75;;;-0.35;82.32
21240;BME280;10778;48.962;9.018;2024-01-15T09:52:43;97875.03;;;-0.38;82.25
21240;BME280;10778;48.962;9.018;2024-01-15T09:55:10;97876.63;;;-0.36;81.96
21240;BME280;10778;48.962;9.018;2024-01-15T09:57:39;97874.66;;;-0.32;81.64
21240;BME280;10778;48.962;9.018;2024-01-15T10:00:06;97869.59;;;-0.34;81.92
21240;BME280;10778;48.962;9.018;2024-01-15T10:02:33;97866.47;;;-0.39;82.35
21240;BME280;10778;48.962;9.018;2024-01-15T10:05:00;97865.56;;;-0.38;82.11
21240;BME280;10778;48.962;9.018;2024-01-15T10:07:29;97863.78;;;-0.37;82.86
21240;BME280;10778;48.962;9.018;2024-01-15T10:09:55;97860.81;;;-0.31;82.07
21240;BME280;10778;48.962;9.018;2024-01-15T10:12:21;97859.59;;;-0.25;82.19
21240;BME280;10778;48.962;9.018;2024-01-15T10:14:48;97860.69;;;-0.30;81.85
21240;BME280;10778;48.962;9.018;2024-01-15T10:17:16;97864.66;;;-0.24;82.02
21240;BME280;10778;48.962;9.018;2024-01-15T10:19:43;97857.09;;;-0.27;82.20
21240;BME280;10778;48.962;9.018;2024-01-15T10:22:09;97846.66;;;-0.25;82.46
21240;BME280;10778;48.962;9.018;2024-01-15T10:24:40;97852.66;;;-0.25;82.41
21240;BME280;10778;48.962;9.018;2024-01-15T10:27:07;97845.31;;;-0.18;82.70
21240;BME280;10778;48.962;9.018;2024-01-15T10:29:33;97837.06;;;-0.23;83.19
21240;BME280;10778;48.962;9.018;2024-01-15T10:32:00;97839.44;;;-0.20;83.17
21240;BME280;10778;48.962;9.018;2024-01-15T10:34:26;97837.97;;;-0.24;83.37
21240;BME280;10778;48.962;9.018;2024-01-15T10:36:52;97829.19;;;-0.22;83.47
21240;BME280;10778;48.962;9.018;2024-01-15T10:39:22;97834.47;;;-0.23;85.28
21240;BME280;10778;48.962;9.018;2024-01-15T10:41:49;97825.78;;;-0.22;86.12
21240;BME280;10778;48.962;9.018;2024-01-15T10:44:15;97834.53;;;-0.38;88.55
21240;BME280;10778;48.962;9.018;2024-01-15T10:46:41;97832.94;;;-0.53;91.49
21240;BME280;10778;48.962;9.018;2024-01-15T10:49:07;97837.38;;;-0.68;94.37
21240;BME280;10778;48.962;9.018;2024-01-15T10:51:33;97830.34;;;-0.66;96.53
21240;BME280;10778;48.962;9.018;2024-01-15T10:54:00;97827.75;;;-0.66;97.62
21240;BME280;10778;48.962;9.018;2024-01-15T10:56:27;97830.19;;;-0.78;99.54
21240;BME280;10778;48.962;9.018;2024-01-15T10:58:54;97833.81;;;-0.95;100.00
21240;BME280;10778;48.962;9.018;2024-01-15T11:01:20;97832.09;;;-0.94;100.00
21240;BME280;10778;48.962;9.018;2024-01-15T11:03:47;97834.41;;;-1.04;100.00
21240;BME280;10778;48.962;9.018;2024-01-15T11:06:17;97838.28;;;-1.11;100.00
21240;BME280;10778;48.962;9.018;2024-01-15T11:08:48;97823.72;;;-1.12;100.00
21240;BME280;10778;48.962;9.018;2024-01-15T11:11:16;97824.31;;;-1.22;100.00
21240;BME280;10778;48.962;9.018;2024-01-15T11:13:43;97826.72;;;-1.19;100.00
21240;BME280;10778;48.962;9.018;2024-01-15T11:16:11;97819.50;;;-1.13;100.00
21240;BME280;10778;48.962;9.018;2024-01-15T11:23:45;97816.59;;;-0.94;100.00
21240;BME280;10778;48.962;9.018;2024-01-15T11:29:00;97808.75;;;-0.93;100.00
21240;BME280;10778;48.962;9.018;2024-01-15T11:34:06;97811.97;;;-0.89;100.00
21240;BME280;10778;48.962;9.018;2024-01-15T11:41:57;97809.34;;;-1.02;100.00
21240;BME280;10778;48.962;9.018;2024-01-15T11:44:23;97817.09;;;-1.02;100.00
21240;BME280;10778;48.962;9.018;2024-01-15T11:46:57;97824.63;;;-0.99;100.00
21240;BME280;10778;48.962;9.018;2024-01-15T11:52:06;97822.88;;;-0.98;100.00
21240;BME280;10778;48.962;9.018;2024-01-15T11:54:38;97822.16;;;-1.01;100.00
21240;BME280;10778;48.962;9.018;2024-01-15T11:57:12;97821.06;;;-1.11;100.00
21240;BME280;10778;48.962;9.018;2024-01-15T11:59:44;97826.41;;;-0.99;100.00
21240;BME280;10778;48.962;9.018;2024-01-15T12:02:10;97825.84;;;-1.05;100.00
21240;BME280;10778;48.962;9.018;2024-01-15T12:04:38;97827.69;;;-1.07;100.00
21240;BME280;10778;48.962;9.018;2024-01-15T12:07:05;97821.72;;;-1.07;100.00
21240;BME280;10778;48.962;9.018;2024-01-15T12:09:31;97819.47;;;-0.99;100.00
21240;BME280;10778;48.962;9.018;2024-01-15T12:12:03;97816.78;;;-0.97;100.00
21240;BME280;10778;48.962;9.018;2024-01-15T12:14:33;97825.94;;;-1.06;100.00
21240;BME280;10778;48.962;9.018;2024-01-15T12:17:00;97820.50;;;-1.02;100.00
21240;BME280;10778;48.962;9.018;2024-01-15T12:19:26;97827.41;;;-1.02;100.00
21240;BME280;10778;48.962;9.018;2024-01-15T12:21:52;97829.25;;;-1.04;100.00
21240;BME280;10778;48.962;9.018;2024-01-15T12:24:18;97818.66;;;-0.99;100.00
21240;BME280;10778;48.962;9.018;2024-01-15T12:26:44;97822.16;;;-1.01;100.00
21240;BME280;10778;48.962;9.018;2024-01-15T12:29:11;97817.09;;;-1.02;100.00
21240;BME280;10778;48.962;9.018;2024-01-15T12:31:37;97821.56;;;-0.91;100.00
21240;BME280;10778;48.962;9.018;2024-01-15T12:34:03;97822.09;;;-0.86;100.00
21240;BME280;10778;48.962;9.018;2024-01-15T12:36:32;97819.09;;;-0.93;100.00
21240;BME280;10778;48.962;9.018;2024-01-15T12:39:01;97810.41;;;-0.92;100.00
21240;BME280;10778;48.962;9.018;2024-01-15T12:41:27;97818.16;;;-0.92;100.00
21240;BME280;10778;48.962;9.018;2024-01-15T12:43:53;97825.56;;;-1.00;100.00
21240;BME280;10778;48.962;9.018;2024-01-15T12:46:19;97820.25;;;-0.84;100.00
21240;BME280;10778;48.962;9.018;2024-01-15T12:48:45;97824.13;;;-0.91;100.00
21240;BME280;10778;48.962;9.018;2024-01-15T12:51:11;97818.06;;;-0.90;100.00
21240;BME280;10778;48.962;9.018;2024-01-15T12:53:37;97824.44;;;-0.96;100.00
21240;BME280;10778;48.962;9.018;2024-01-15T12:56:04;97820.09;;;-0.95;100.00
21240;BME280;10778;48.962;9.018;2024-01-15T12:58:29;97823.69;;;-0.98;100.00
21240;BME280;10778;48.962;9.018;2024-01-15T13:00:55;97825.34;;;-0.97;100.00
21240;BME280;10778;48.962;9.018;2024-01-15T13:03:22;97824.97;;;-0.91;100.00
21240;BME280;10778;48.962;9.018;2024-01-15T13:05:48;97832.53;;;-0.88;100.00
21240;BME280;10778;48.962;9.018;2024-01-15T13:08:14;97832.34;;;-0.84;100.00
21240;BME280;10778;48.962;9.018;2024-01-15T13:10:40;97832.00;;;-0.93;100.00
21240;BME280;10778;48.962;9.018;2024-01-15T13:13:08;97837.44;;;-0.97;100.00
21240;BME280;10778;48.962;9.018;2024-01-15T13:15:34;97831.44;;;-0.98;100.00